Time;durP1;ratioP1;P1;durP2;ratioP2;P2;SDS_P1;SDS_P2;PMS_P1;PMS_P2;Temp;Humidity;BMP_temperature;BMP_pressure;BME280_temperature;BME280_humidity;BME280_pressure;Samples;Min_cycle;Max_cycle;Signal;HPM_P1;HPM_P2
2022/06/25 00:01:11;;;;;;;5.15;4.65;;;17.90;99.90;;;;;;5030049;28;20395;-72
2022/06/25 00:03:37;;;;;;;4.57;4.20;;;18.00;99.90;;;;;;5030617;28;20394;-72
2022/06/25 00:06:04;;;;;;;3.80;3.50;;;17.90;99.90;;;;;;5030204;28;20061;-72
2022/06/25 00:08:30;;;;;;;4.65;4.18;;;17.90;99.90;;;;;;5030610;28;20048;-72
2022/06/25 00:10:55;;;;;;;5.20;4.40;;;17.70;99.90;;;;;;5029918;28;20101;-72
2022/06/25 00:13:21;;;;;;;5.63;4.38;;;17.90;99.90;;;;;;5030104;28;20167;-72
2022/06/25 00:15:47;;;;;;;4.85;3.78;;;18.00;99.90;;;;;;5030330;28;20109;-72
2022/06/25 00:18:13;;;;;;;4.28;3.88;;;17.90;99.90;;;;;;5030225;28;20123;-72
2022/06/25 00:20:38;;;;;;;3.88;3.58;;;17.90;99.90;;;;;;5030397;28;20430;-72
2022/06/25 00:23:04;;;;;;;3.85;3.55;;;18.00;99.90;;;;;;5029771;28;20057;-72
2022/06/25 00:25:30;;;;;;;4.38;3.97;;;18.00;99.90;;;;;;5029842;28;20414;-71
2022/06/25 00:27:56;;;;;;;3.13;2.90;;;18.10;99.90;;;;;;5029950;28;20117;-71
2022/06/25 00:30:23;;;;;;;3.85;3.55;;;18.00;99.90;;;;;;5030333;28;20033;-72
2022/06/25 00:32:49;;;;;;;5.93;3.95;;;17.90;99.90;;;;;;5029801;28;20026;-72
2022/06/25 00:35:15;;;;;;;4.03;3.72;;;18.00;99.90;;;;;;5030003;28;20184;-72
2022/06/25 00:37:41;;;;;;;3.83;3.10;;;18.00;99.90;;;;;;5030003;28;20139;-72
2022/06/25 00:40:08;;;;;;;4.78;3.33;;;18.00;99.90;;;;;;5029400;28;20124;-72
2022/06/25 00:42:34;;;;;;;5.18;3.25;;;18.00;99.90;;;;;;5029805;28;20176;-71
2022/06/25 00:44:59;;;;;;;3.30;3.00;;;18.00;99.90;;;;;;5029577;28;20495;-71
2022/06/25 00:47:26;;;;;;;4.40;4.00;;;18.00;99.90;;;;;;5029959;28;20036;-72
2022/06/25 00:49:51;;;;;;;5.03;3.53;;;17.90;99.90;;;;;;5029726;28;20044;-71
2022/06/25 00:52:18;;;;;;;3.67;3.20;;;18.70;99.90;;;;;;5029561;28;20665;-72
2022/06/25 00:54:58;;;;;;;3.85;3.55;;;18.10;99.90;;;;;;5029406;28;20109;-72
2022/06/25 00:57:28;;;;;;;3.80;3.35;;;18.00;99.90;;;;;;5029891;28;20048;-72
2022/06/25 01:00:01;;;;;;;3.80;3.50;;;18.00;99.90;;;;;;5029742;28;20037;-71
2022/06/25 01:02:26;;;;;;;3.40;3.10;;;18.00;99.90;;;;;;5029842;28;20117;-72
2022/06/25 01:04:52;;;;;;;3.25;2.95;;;17.80;99.90;;;;;;5028592;28;20699;-72
2022/06/25 01:07:19;;;;;;;4.05;3.65;;;17.90;99.90;;;;;;5029255;28;20041;-71
2022/06/25 01:09:49;;;;;;;3.83;3.03;;;17.90;99.90;;;;;;5029073;28;20042;-71
2022/06/25 01:12:14;;;;;;;2.78;2.58;;;18.00;99.90;;;;;;5029480;28;20079;-72
2022/06/25 01:14:40;;;;;;;4.25;3.70;;;17.80;99.90;;;;;;5029631;28;20442;-72
2022/06/25 01:17:08;;;;;;;4.07;3.35;;;17.90;99.90;;;;;;5028996;28;20053;-72
2022/06/25 01:19:34;;;;;;;5.00;3.80;;;20.30;99.90;;;;;;5029609;28;20486;-72
2022/06/25 01:22:04;;;;;;;4.60;3.55;;;17.90;99.90;;;;;;5029080;28;20033;-72
2022/06/25 01:24:29;;;;;;;3.90;3.38;;;17.90;99.90;;;;;;5028946;28;20060;-72
2022/06/25 01:26:55;;;;;;;4.32;3.92;;;17.80;99.90;;;;;;5029463;28;20472;-72
2022/06/25 01:29:20;;;;;;;5.53;3.75;;;17.90;99.90;;;;;;5029309;28;20021;-72
2022/06/25 01:31:46;;;;;;;4.45;3.38;;;17.80;99.90;;;;;;5029596;28;20030;-72
2022/06/25 01:34:12;;;;;;;4.72;3.90;;;17.80;99.90;;;;;;5029010;28;20057;-72
2022/06/25 01:36:37;;;;;;;3.90;3.38;;;17.80;99.90;;;;;;5033240;28;20128;-72
2022/06/25 01:39:03;;;;;;;3.40;3.20;;;17.80;99.90;;;;;;5032594;28;20141;-72
2022/06/25 01:41:29;;;;;;;3.60;3.28;;;17.70;99.90;;;;;;5033305;28;20480;-72
2022/06/25 01:43:55;;;;;;;4.47;4.07;;;17.60;99.90;;;;;;5033020;28;20033;-72
2022/06/25 01:46:21;;;;;;;4.10;3.70;;;17.60;99.90;;;;;;5032916;28;20030;-72
2022/06/25 01:48:47;;;;;;;3.60;3.30;;;17.70;99.90;;;;;;5033155;28;20023;-72
2022/06/25 01:51:13;;;;;;;3.47;3.28;;;17.60;99.90;;;;;;5032434;28;20467;-72
2022/06/25 01:53:39;;;;;;;6.22;3.65;;;17.60;99.90;;;;;;5032161;28;20107;-72
2022/06/25 01:56:07;;;;;;;4.43;3.25;;;17.60;99.90;;;;;;5032143;28;20037;-72
2022/06/25 01:58:32;;;;;;;4.97;3.30;;;17.60;99.90;;;;;;5033046;28;20018;-72
2022/06/25 02:00:58;;;;;;;3.38;3.08;;;17.60;99.90;;;;;;5032731;28;20038;-72
2022/06/25 02:03:24;;;;;;;4.68;3.53;;;17.80;99.90;;;;;;5032980;28;20029;-72
2022/06/25 02:05:58;;;;;;;6.00;3.50;;;17.50;99.90;;;;;;5032330;28;20095;-72
2022/06/25 02:08:27;;;;;;;4.13;3.15;;;17.40;99.90;;;;;;5032792;28;20107;-72
2022/06/25 02:10:54;;;;;;;6.78;3.38;;;17.50;99.90;;;;;;5032900;28;20019;-72
2022/06/25 02:13:20;;;;;;;4.13;3.22;;;17.40;99.90;;;;;;5032634;28;20025;-72
2022/06/25 02:15:46;;;;;;;3.40;3.10;;;17.40;99.90;;;;;;5032653;28;20029;-72
2022/06/25 02:18:12;;;;;;;4.97;3.35;;;17.40;99.90;;;;;;5032319;28;20080;-72
2022/06/25 02:20:38;;;;;;;3.97;3.67;;;17.50;99.90;;;;;;5032626;28;20034;-72
2022/06/25 02:23:04;;;;;;;4.03;3.72;;;17.50;99.90;;;;;;5030679;28;20031;-71
2022/06/25 02:25:29;;;;;;;3.60;3.30;;;17.30;99.90;;;;;;5032629;28;20064;-72
2022/06/25 02:27:55;;;;;;;5.43;3.67;;;17.30;99.90;;;;;;5032214;28;20064;-72
2022/06/25 02:30:21;;;;;;;3.45;3.15;;;17.30;99.90;;;;;;5032297;28;20067;-72
2022/06/25 02:32:47;;;;;;;5.13;4.28;;;17.30;99.90;;;;;;5032303;28;20502;-72
2022/06/25 02:35:13;;;;;;;3.40;3.10;;;18.20;99.90;;;;;;5031874;28;20490;-72
2022/06/25 02:37:38;;;;;;;4.45;3.15;;;17.30;99.90;;;;;;5031521;28;20037;-72
2022/06/25 02:40:05;;;;;;;5.22;3.88;;;17.00;99.90;;;;;;5031550;28;20065;-72
2022/06/25 02:42:38;;;;;;;3.90;3.45;;;17.20;99.90;;;;;;5031786;28;20039;-73
2022/06/25 02:45:06;;;;;;;3.72;3.42;;;17.20;99.90;;;;;;5031846;28;20052;-72
2022/06/25 02:47:32;;;;;;;4.25;3.42;;;17.10;99.90;;;;;;5030419;28;20112;-72
2022/06/25 02:49:58;;;;;;;3.10;2.80;;;17.20;99.90;;;;;;5031320;28;20467;-72
2022/06/25 02:52:24;;;;;;;4.57;3.25;;;16.80;99.90;;;;;;5031869;28;20025;-72
2022/06/25 02:54:50;;;;;;;3.55;3.13;;;17.10;99.90;;;;;;5031910;28;20482;-72
2022/06/25 03:00:00;;;;;;;3.70;3.40;;;17.00;99.90;;;;;;5031656;28;20088;-72
2022/06/25 03:02:26;;;;;;;5.82;3.40;;;16.90;99.90;;;;;;5032264;28;20030;-72
2022/06/25 03:04:52;;;;;;;3.67;2.65;;;17.00;99.90;;;;;;5031356;28;20030;-72
2022/06/25 03:07:17;;;;;;;2.85;2.65;;;17.00;99.90;;;;;;5030722;28;20132;-72
2022/06/25 03:09:43;;;;;;;3.90;3.45;;;17.00;99.90;;;;;;5031874;28;20083;-72
2022/06/25 03:12:09;;;;;;;3.50;3.20;;;17.00;99.90;;;;;;5031151;28;20041;-72
2022/06/25 03:14:34;;;;;;;5.50;2.75;;;17.00;99.90;;;;;;5031635;28;20022;-72
2022/06/25 03:17:00;;;;;;;4.60;3.75;;;17.10;99.90;;;;;;5030981;28;20795;-72
2022/06/25 03:19:25;;;;;;;3.13;2.65;;;17.00;99.90;;;;;;5030801;28;20400;-72
2022/06/25 03:21:51;;;;;;;4.45;3.47;;;17.00;99.90;;;;;;5031460;28;20034;-72
2022/06/25 03:24:16;;;;;;;4.63;3.22;;;16.90;99.90;;;;;;5030919;28;20025;-72
2022/06/25 03:26:42;;;;;;;3.78;3.47;;;16.90;99.90;;;;;;5031389;28;20040;-72
2022/06/25 03:29:08;;;;;;;2.90;2.70;;;16.80;99.90;;;;;;5030705;28;20036;-72
2022/06/25 03:31:34;;;;;;;3.55;3.25;;;16.80;99.90;;;;;;5031445;28;20025;-72
2022/06/25 03:34:00;;;;;;;4.43;3.47;;;16.90;99.90;;;;;;5030506;28;20152;-72
2022/06/25 03:36:25;;;;;;;3.67;2.95;;;16.90;99.90;;;;;;5030663;28;20037;-72
2022/06/25 03:38:51;;;;;;;4.28;3.88;;;16.80;99.90;;;;;;5031259;28;20025;-72
2022/06/25 03:44:00;;;;;;;3.90;3.50;;;16.80;99.90;;;;;;5030860;28;20040;-72
2022/06/25 03:46:26;;;;;;;4.60;3.75;;;16.80;99.90;;;;;;5030790;28;20105;-72
2022/06/25 03:48:52;;;;;;;5.05;3.33;;;16.70;99.90;;;;;;5030679;28;20033;-72
2022/06/25 03:51:18;;;;;;;4.28;3.45;;;17.00;99.90;;;;;;5030398;28;20033;-72
2022/06/25 03:53:44;;;;;;;4.00;3.60;;;16.70;99.90;;;;;;5030925;28;20029;-72
2022/06/25 03:56:10;;;;;;;4.80;3.22;;;16.80;99.90;;;;;;5030312;28;20478;-72
2022/06/25 03:58:35;;;;;;;4.10;3.70;;;16.80;99.90;;;;;;5030484;28;20037;-72
2022/06/25 04:01:01;;;;;;;4.25;3.50;;;16.60;99.90;;;;;;5030414;28;20036;-72
2022/06/25 04:03:27;;;;;;;4.80;3.60;;;16.70;99.90;;;;;;5029944;28;20513;-72
2022/06/25 04:05:52;;;;;;;3.95;3.65;;;16.70;99.90;;;;;;5030222;28;20057;-72
2022/06/25 04:08:18;;;;;;;4.68;3.85;;;16.70;99.90;;;;;;5030326;28;20139;-72
2022/06/25 04:10:44;;;;;;;3.67;3.38;;;16.70;99.90;;;;;;5030524;28;20100;-72
2022/06/25 04:13:10;;;;;;;5.47;3.53;;;16.70;99.90;;;;;;5029951;28;20063;-72
2022/06/25 04:15:36;;;;;;;4.05;3.65;;;16.50;99.90;;;;;;5030439;28;20386;-72
2022/06/25 04:18:02;;;;;;;3.53;2.97;;;16.80;99.90;;;;;;5029832;28;20125;-72
2022/06/25 04:20:28;;;;;;;4.32;3.92;;;16.70;99.90;;;;;;5030219;28;20483;-72
2022/06/25 04:22:54;;;;;;;4.47;4.03;;;16.70;99.90;;;;;;5030466;28;20018;-72
2022/06/25 04:25:20;;;;;;;8.32;4.60;;;16.70;99.90;;;;;;5030055;28;20029;-72
2022/06/25 04:30:30;;;;;;;4.18;3.67;;;16.80;99.90;;;;;;5030161;28;20547;-72
2022/06/25 04:32:55;;;;;;;4.80;4.15;;;16.70;99.90;;;;;;5029624;28;20022;-72
2022/06/25 04:35:21;;;;;;;4.40;3.63;;;16.80;99.90;;;;;;5029832;28;20034;-72
2022/06/25 04:37:46;;;;;;;4.40;4.00;;;16.80;99.90;;;;;;5029518;28;20025;-72
2022/06/25 04:40:12;;;;;;;4.50;4.07;;;16.80;99.90;;;;;;5029691;28;20030;-72
2022/06/25 04:42:38;;;;;;;4.43;3.95;;;16.80;99.90;;;;;;5030025;28;20028;-73
2022/06/25 04:45:03;;;;;;;5.82;4.82;;;18.00;99.90;;;;;;5029829;28;20021;-72
2022/06/25 04:47:29;;;;;;;5.30;4.68;;;17.00;99.90;;;;;;5029465;28;20601;-72
2022/06/25 04:49:54;;;;;;;5.60;5.10;;;17.00;99.90;;;;;;5029826;28;20021;-72
2022/06/25 04:52:20;;;;;;;4.88;4.47;;;18.20;99.90;;;;;;5029683;28;20056;-72
2022/06/25 04:54:45;;;;;;;4.90;4.40;;;17.40;99.90;;;;;;5026071;28;20490;-71
2022/06/25 04:57:11;;;;;;;5.40;4.90;;;17.50;99.90;;;;;;5026658;28;20038;-72
2022/06/25 04:59:37;;;;;;;7.15;5.25;;;17.60;99.90;;;;;;5029695;28;20164;-72
2022/06/25 05:02:02;;;;;;;5.22;4.72;;;20.40;99.90;;;;;;5028850;28;20061;-72
2022/06/25 05:04:28;;;;;;;7.00;5.32;;;18.00;99.90;;;;;;5027634;28;20029;-71
2022/06/25 05:06:54;;;;;;;5.55;4.22;;;18.20;99.90;;;;;;5028182;28;20045;-72
2022/06/25 05:09:19;;;;;;;4.63;4.22;;;18.30;99.90;;;;;;5025172;28;20025;-71
2022/06/25 05:11:45;;;;;;;9.40;5.13;;;18.40;99.90;;;;;;5033791;28;20105;-71
2022/06/25 05:14:10;;;;;;;5.72;4.47;;;18.50;99.90;;;;;;5032855;28;20068;-72
2022/06/25 05:16:36;;;;;;;5.85;5.13;;;18.70;99.90;;;;;;5033342;28;20498;-72
2022/06/25 05:19:02;;;;;;;5.30;4.72;;;18.70;99.90;;;;;;5033149;28;20029;-72
2022/06/25 05:21:27;;;;;;;7.20;4.38;;;20.00;99.90;;;;;;5033733;28;20030;-72
2022/06/25 05:23:53;;;;;;;5.03;4.63;;;18.70;99.90;;;;;;5032126;28;20030;-72
2022/06/25 05:26:19;;;;;;;4.80;4.40;;;18.70;99.90;;;;;;5033392;28;20053;-71
2022/06/25 05:28:44;;;;;;;7.13;5.18;;;18.90;99.90;;;;;;5033807;28;20018;-72
2022/06/25 05:31:10;;;;;;;5.63;5.03;;;19.00;99.90;;;;;;5032557;28;20025;-71
2022/06/25 05:33:36;;;;;;;5.47;4.88;;;19.10;99.90;;;;;;5033614;28;20022;-72
2022/06/25 05:36:01;;;;;;;8.02;4.72;;;19.20;99.90;;;;;;5029739;28;20116;-72
2022/06/25 05:38:27;;;;;;;6.70;4.97;;;19.30;99.90;;;;;;5033156;28;20467;-72
2022/06/25 05:40:54;;;;;;;5.15;4.70;;;19.30;99.90;;;;;;5033288;28;20033;-72
2022/06/25 05:43:19;;;;;;;6.28;4.80;;;19.30;99.90;;;;;;5033086;28;20026;-71
2022/06/25 05:45:45;;;;;;;5.20;4.70;;;19.30;99.90;;;;;;5032965;28;20029;-71
2022/06/25 05:48:10;;;;;;;10.15;4.75;;;19.30;99.90;;;;;;5032606;28;20059;-71
2022/06/25 05:50:36;;;;;;;7.05;5.25;;;19.40;99.90;;;;;;5033310;28;20466;-71
2022/06/25 05:53:01;;;;;;;4.63;4.22;;;19.30;99.90;;;;;;5032579;28;20026;-72
2022/06/25 05:55:27;;;;;;;5.43;4.18;;;19.40;99.90;;;;;;5033029;28;20037;-72
2022/06/25 05:57:53;;;;;;;7.63;4.40;;;19.30;99.90;;;;;;5032995;28;20025;-72
2022/06/25 06:00:19;;;;;;;4.90;4.38;;;;;;;;;;5032314;28;20025;-72
2022/06/25 06:02:44;;;;;;;4.40;4.05;;;19.40;99.90;;;;;;5033107;28;20029;-72
2022/06/25 06:05:10;;;;;;;4.25;3.35;;;20.40;99.90;;;;;;5032053;28;20021;-71
2022/06/25 06:07:36;;;;;;;5.28;4.32;;;19.40;99.90;;;;;;5032291;28;20465;-71
2022/06/25 06:10:03;;;;;;;6.03;4.07;;;19.60;99.90;;;;;;5032652;28;20104;-72
2022/06/25 06:12:28;;;;;;;5.63;3.72;;;21.10;99.90;;;;;;5032656;28;20029;-72
2022/06/25 06:14:54;;;;;;;5.60;3.47;;;19.60;99.90;;;;;;5031074;28;20056;-72
2022/06/25 06:17:19;;;;;;;4.72;4.20;;;19.50;99.90;;;;;;5032167;28;20041;-71
2022/06/25 06:19:45;;;;;;;4.65;3.72;;;19.60;99.90;;;;;;5032826;28;20037;-71
2022/06/25 06:22:10;;;;;;;3.40;2.83;;;19.70;99.90;;;;;;5019469;28;20038;-72
2022/06/25 06:24:36;;;;;;;3.30;2.97;;;19.80;99.90;;;;;;5032695;28;20029;-72
2022/06/25 06:27:02;;;;;;;4.65;4.15;;;19.80;99.90;;;;;;5032288;28;20025;-71
2022/06/25 06:29:29;;;;;;;5.03;3.50;;;19.90;99.90;;;;;;5031740;28;20032;-72
2022/06/25 06:31:54;;;;;;;3.63;3.22;;;19.90;99.90;;;;;;5032429;28;20032;-71
2022/06/25 06:34:20;;;;;;;9.88;4.32;;;20.00;99.90;;;;;;5031361;28;20017;-71
2022/06/25 06:36:46;;;;;;;4.55;3.85;;;20.10;99.90;;;;;;5030996;28;20037;-71
2022/06/25 06:39:11;;;;;;;4.43;2.90;;;20.70;99.90;;;;;;5027435;28;20422;-71
2022/06/25 06:41:37;;;;;;;3.85;3.13;;;20.20;99.90;;;;;;5032010;28;20557;-71
2022/06/25 06:44:03;;;;;;;3.70;3.15;;;20.30;99.90;;;;;;5030755;28;20017;-72
2022/06/25 06:46:28;;;;;;;4.97;3.05;;;20.40;99.90;;;;;;5031209;28;20033;-71
2022/06/25 06:48:54;;;;;;;6.43;3.20;;;20.40;99.90;;;;;;5031668;28;20022;-71
2022/06/25 06:51:19;;;;;;;3.65;2.67;;;20.70;99.90;;;;;;5031022;28;20512;-71
2022/06/25 06:53:45;;;;;;;4.00;2.60;;;20.70;99.90;;;;;;5031816;28;20035;-71
2022/06/25 06:56:10;;;;;;;2.92;2.38;;;20.70;99.90;;;;;;5031269;28;20046;-72
2022/06/25 06:58:37;;;;;;;3.00;2.70;;;20.80;99.90;;;;;;5031139;28;20032;-72
2022/06/25 07:01:03;;;;;;;3.63;2.03;;;20.70;99.90;;;;;;5031792;28;20029;-72
2022/06/25 07:03:28;;;;;;;3.13;2.05;;;20.80;99.90;;;;;;5031581;28;20521;-72
2022/06/25 07:05:54;;;;;;;3.70;2.70;;;20.70;99.90;;;;;;5031145;28;20029;-72
2022/06/25 07:08:19;;;;;;;2.92;2.45;;;20.60;99.90;;;;;;5031606;28;20390;-71
2022/06/25 07:10:45;;;;;;;4.90;2.47;;;20.60;99.90;;;;;;5031782;28;20075;-71
2022/06/25 07:13:11;;;;;;;2.67;2.42;;;20.70;99.90;;;;;;5030752;28;20032;-71
2022/06/25 07:15:36;;;;;;;2.92;1.85;;;20.60;99.90;;;;;;5031515;28;20037;-72
2022/06/25 07:18:02;;;;;;;2.70;2.10;;;20.80;99.90;;;;;;5031300;28;20045;-71
2022/06/25 07:20:28;;;;;;;2.65;2.10;;;20.90;99.90;;;;;;5031237;28;20029;-71
2022/06/25 07:22:53;;;;;;;4.82;2.03;;;21.10;99.90;;;;;;5031342;28;20041;-70
2022/06/25 07:25:19;;;;;;;3.72;2.58;;;21.70;99.90;;;;;;5031370;28;20506;-71
2022/06/25 07:27:46;;;;;;;3.60;1.75;;;21.10;99.90;;;;;;5029679;28;20388;-71
2022/06/25 07:30:12;;;;;;;3.08;2.35;;;21.20;99.90;;;;;;5030913;28;20025;-71
2022/06/25 07:32:37;;;;;;;5.97;2.05;;;21.20;99.90;;;;;;5030756;28;20025;-71
2022/06/25 07:35:03;;;;;;;3.03;2.08;;;21.40;99.90;;;;;;5030567;28;20121;-71
2022/06/25 07:37:28;;;;;;;3.83;2.05;;;21.60;99.90;;;;;;5029579;28;20045;-71
2022/06/25 07:39:54;;;;;;;3.58;2.10;;;21.90;99.90;;;;;;5031456;28;20024;-71
2022/06/25 07:42:20;;;;;;;9.88;2.20;;;21.90;99.90;;;;;;5030822;28;20033;-71
2022/06/25 07:44:45;;;;;;;2.20;2.00;;;22.10;99.90;;;;;;5030810;28;20056;-71
2022/06/25 07:47:12;;;;;;;4.60;2.47;;;22.20;99.90;;;;;;5030607;28;20017;-71
2022/06/25 07:52:22;;;;;;;2.30;1.98;;;23.00;99.90;;;;;;5030615;28;20028;-70
2022/06/25 07:54:47;;;;;;;2.17;1.30;;;22.10;99.90;;;;;;5030740;28;20108;-69
2022/06/25 07:57:13;;;;;;;2.17;1.45;;;22.00;99.90;;;;;;5030390;28;20025;-70
2022/06/25 07:59:38;;;;;;;4.68;1.33;;;22.30;99.90;;;;;;5030983;28;20360;-70
2022/06/25 08:02:04;;;;;;;2.15;0.90;;;22.60;99.90;;;;;;5030355;28;20076;-69
2022/06/25 08:04:29;;;;;;;3.08;1.27;;;22.80;99.90;;;;;;5030596;28;20018;-71
2022/06/25 08:06:56;;;;;;;1.95;1.13;;;22.80;99.70;;;;;;5030021;28;20049;-70
2022/06/25 08:09:22;;;;;;;4.95;1.27;;;23.30;99.40;;;;;;5029857;28;20025;-71
2022/06/25 08:11:48;;;;;;;5.50;1.20;;;23.00;99.10;;;;;;5030700;28;20021;-71
2022/06/25 08:14:14;;;;;;;1.20;1.00;;;23.00;99.30;;;;;;5029973;28;20032;-71
2022/06/25 08:16:40;;;;;;;1.98;1.17;;;23.00;99.20;;;;;;5030356;28;20041;-71
2022/06/25 08:19:06;;;;;;;3.83;0.80;;;22.80;99.10;;;;;;5030084;28;20103;-71
2022/06/25 08:21:32;;;;;;;1.40;0.63;;;22.80;99.10;;;;;;5027110;28;20101;-71
2022/06/25 08:23:57;;;;;;;2.08;0.93;;;22.70;99.10;;;;;;5029822;28;20009;-71
2022/06/25 08:26:23;;;;;;;1.88;0.80;;;22.80;99.00;;;;;;5029926;28;20025;-71
2022/06/25 08:28:49;;;;;;;10.02;1.17;;;23.00;98.70;;;;;;5030059;28;20033;-71
2022/06/25 08:31:15;;;;;;;2.78;0.80;;;23.10;98.50;;;;;;5029690;28;20029;-71
2022/06/25 08:33:41;;;;;;;2.50;1.65;;;23.30;98.40;;;;;;5029298;28;20021;-71
2022/06/25 08:36:06;;;;;;;4.55;1.08;;;23.60;97.90;;;;;;5029442;28;20037;-68
2022/06/25 08:38:32;;;;;;;2.10;1.10;;;23.90;97.70;;;;;;5029729;28;20017;-68
2022/06/25 08:40:59;;;;;;;2.22;0.63;;;24.10;97.40;;;;;;5030357;28;20116;-71
2022/06/25 08:43:25;;;;;;;1.95;1.00;;;24.00;97.20;;;;;;5029719;28;20100;-70
2022/06/25 08:45:51;;;;;;;4.13;0.82;;;24.20;96.70;;;;;;5029873;28;20117;-70
2022/06/25 08:48:24;;;;;;;3.95;1.00;;;24.20;96.40;;;;;;5029248;28;20471;-71
2022/06/25 08:50:51;;;;;;;1.10;0.52;;;24.10;96.50;;;;;;5028041;28;20390;-71
2022/06/25 08:53:18;;;;;;;2.30;0.70;;;25.60;96.80;;;;;;5029115;28;20017;-70
2022/06/25 08:55:45;;;;;;;2.10;0.50;;;23.80;96.30;;;;;;5029886;28;20741;-70
2022/06/25 08:58:12;;;;;;;1.20;0.52;;;24.00;96.20;;;;;;5029517;28;20064;-71
2022/06/25 09:00:43;;;;;;;1.35;0.85;;;23.80;96.20;;;;;;5029982;28;20032;-71
2022/06/25 09:03:09;;;;;;;1.08;0.82;;;24.00;95.20;;;;;;5029420;28;20505;-70
2022/06/25 09:05:40;;;;;;;2.45;0.98;;;23.80;95.80;;;;;;5029662;28;20030;-70
2022/06/25 09:08:15;;;;;;;1.98;0.80;;;24.50;96.40;;;;;;5028185;28;20112;-71
2022/06/25 09:10:46;;;;;;;4.35;0.60;;;23.60;96.40;;;;;;5028951;28;20128;-71
2022/06/25 09:13:13;;;;;;;1.40;0.88;;;23.60;96.20;;;;;;5021702;28;20475;-71
2022/06/25 09:15:44;;;;;;;1.83;0.77;;;23.60;96.20;;;;;;5027493;28;20064;-71
2022/06/25 09:18:13;;;;;;;1.30;0.70;;;23.50;96.20;;;;;;5029340;28;20061;-71
2022/06/25 09:20:58;;;;;;;1.90;0.70;;;23.50;95.10;;;;;;5029575;28;20068;-71
2022/06/25 09:23:28;;;;;;;2.08;0.52;;;23.40;96.60;;;;;;5029080;28;20018;-71
2022/06/25 09:26:20;;;;;;;2.35;0.75;;;23.30;95.60;;;;;;5029701;28;20018;-70
2022/06/25 09:28:46;;;;;;;0.70;0.60;;;23.20;96.80;;;;;;5027507;28;20030;-72
2022/06/25 09:31:11;;;;;;;1.25;0.70;;;23.80;96.50;;;;;;5028996;28;20017;-72
2022/06/25 09:33:39;;;;;;;1.40;0.82;;;23.00;96.50;;;;;;5028655;28;20544;-72
2022/06/25 09:36:09;;;;;;;1.35;0.85;;;22.90;96.80;;;;;;5028626;28;20398;-71
2022/06/25 09:38:37;;;;;;;2.97;0.80;;;22.70;97.10;;;;;;5029797;28;20029;-72
2022/06/25 09:41:02;;;;;;;1.17;0.88;;;22.90;96.70;;;;;;5029273;28;20032;-71
2022/06/25 09:43:35;;;;;;;3.08;0.88;;;22.90;96.80;;;;;;5029320;28;20021;-71
2022/06/25 09:46:05;;;;;;;3.08;1.15;;;22.80;97.10;;;;;;5029137;28;20033;-71
2022/06/25 09:48:33;;;;;;;1.60;0.85;;;22.80;97.60;;;;;;5029411;28;20101;-71
2022/06/25 09:51:16;;;;;;;2.72;0.93;;;22.80;97.10;;;;;;5022037;28;20029;-71
2022/06/25 09:53:58;;;;;;;3.20;0.90;;;22.80;96.80;;;;;;5017269;28;20033;-71
2022/06/25 09:56:30;;;;;;;3.00;0.90;;;22.60;97.00;;;;;;5030282;28;20482;-71
2022/06/25 09:58:57;;;;;;;2.17;1.35;;;22.70;97.80;;;;;;5032756;28;20025;-71
2022/06/25 10:01:24;;;;;;;2.05;1.20;;;23.10;97.60;;;;;;5032335;28;20018;-71
2022/06/25 10:03:51;;;;;;;3.10;1.33;;;22.60;97.80;;;;;;5032885;28;20044;-70
2022/06/25 10:06:19;;;;;;;6.80;1.00;;;22.80;97.60;;;;;;5031975;28;20056;-71
2022/06/25 10:08:54;;;;;;;2.17;1.13;;;23.20;97.70;;;;;;5032814;28;20031;-71
2022/06/25 10:11:23;;;;;;;3.17;1.05;;;23.10;96.70;;;;;;5032327;28;20091;-71
2022/06/25 10:13:50;;;;;;;3.25;1.55;;;23.20;97.20;;;;;;5030900;28;20025;-71
2022/06/25 10:16:18;;;;;;;3.10;1.40;;;23.20;96.90;;;;;;5032224;28;20255;-72
2022/06/25 10:18:44;;;;;;;4.43;2.05;;;23.20;96.90;;;;;;5031479;28;20029;-71
2022/06/25 10:21:12;;;;;;;2.85;1.38;;;23.30;97.00;;;;;;5030696;28;20083;-72
2022/06/25 10:23:39;;;;;;;1.98;1.15;;;23.20;96.90;;;;;;5031967;28;20044;-71
2022/06/25 10:26:05;;;;;;;1.55;1.15;;;23.20;97.00;;;;;;5031910;28;20108;-72
2022/06/25 10:28:35;;;;;;;1.60;1.17;;;23.10;96.80;;;;;;5032278;28;20035;-72
2022/06/25 10:31:06;;;;;;;3.38;1.25;;;23.20;97.00;;;;;;5032244;28;20058;-71
2022/06/25 10:33:50;;;;;;;3.88;1.58;;;23.20;96.90;;;;;;5032344;28;20025;-72
2022/06/25 10:36:15;;;;;;;3.00;1.25;;;23.20;97.10;;;;;;5030731;28;20049;-73
2022/06/25 10:38:41;;;;;;;2.10;1.48;;;23.10;96.80;;;;;;5032216;28;20033;-72
2022/06/25 10:43:57;;;;;;;4.20;1.42;;;22.90;97.20;;;;;;5027892;28;20028;-71
2022/06/25 10:46:31;;;;;;;2.63;1.42;;;22.70;97.40;;;;;;5031345;28;20439;-71
2022/06/25 10:49:12;;;;;;;2.08;0.98;;;22.70;97.00;;;;;;5031708;28;20053;-71
2022/06/25 10:51:49;;;;;;;1.08;0.90;;;22.60;97.20;;;;;;5032144;28;20471;-71
2022/06/25 10:54:26;;;;;;;2.30;1.45;;;22.50;98.30;;;;;;5031511;28;20021;-72
2022/06/25 10:56:58;;;;;;;2.90;1.20;;;22.40;97.90;;;;;;5031548;28;20133;-72
2022/06/25 10:59:35;;;;;;;2.45;1.67;;;22.40;98.90;;;;;;5031423;28;20045;-72
2022/06/25 11:02:03;;;;;;;1.88;1.63;;;22.40;99.30;;;;;;5029812;28;20028;-72
2022/06/25 11:04:30;;;;;;;1.85;1.58;;;22.60;99.10;;;;;;5031358;28;20083;-72
2022/06/25 11:07:17;;;;;;;3.20;1.50;;;22.60;98.90;;;;;;5030795;28;20060;-72
2022/06/25 11:09:57;;;;;;;2.78;1.63;;;22.60;98.50;;;;;;5031964;28;20022;-73
2022/06/25 11:12:25;;;;;;;2.53;1.88;;;23.30;99.40;;;;;;5031373;28;20025;-73
2022/06/25 11:15:17;;;;;;;2.13;1.48;;;22.60;98.90;;;;;;5031760;28;20021;-72
2022/06/25 11:17:43;;;;;;;4.38;1.90;;;22.80;98.90;;;;;;5016416;28;20041;-71
2022/06/25 11:20:11;;;;;;;2.70;1.88;;;22.80;98.10;;;;;;5030756;28;20718;-72
2022/06/25 11:22:50;;;;;;;2.97;1.55;;;22.90;98.40;;;;;;5031132;28;20033;-73
2022/06/25 11:30:47;;;;;;;2.40;1.70;;;23.50;97.60;;;;;;5031476;28;20083;-71
2022/06/25 11:33:14;;;;;;;2.80;1.48;;;23.80;96.90;;;;;;5030279;28;20071;-71
2022/06/25 11:35:42;;;;;;;3.58;1.83;;;23.80;96.80;;;;;;5031294;28;20030;-71
2022/06/25 11:38:19;;;;;;;3.42;1.80;;;25.40;97.00;;;;;;5030507;28;20163;-71
2022/06/25 11:40:46;;;;;;;1.73;1.30;;;24.30;95.90;;;;;;5031183;28;20044;-71
2022/06/25 11:43:14;;;;;;;1.30;1.00;;;24.50;95.90;;;;;;5030425;28;20041;-71
2022/06/25 11:46:14;;;;;;;3.63;1.70;;;24.60;95.80;;;;;;5029841;28;20489;-71
2022/06/25 11:48:39;;;;;;;4.03;1.38;;;25.00;95.60;;;;;;5008257;28;20120;-72
2022/06/25 11:51:05;;;;;;;11.35;1.88;;;25.00;94.80;;;;;;5030608;28;20506;-70
2022/06/25 11:53:30;;;;;;;3.38;1.23;;;25.00;94.40;;;;;;5030406;28;20028;-71
2022/06/25 11:56:01;;;;;;;3.15;1.30;;;24.90;94.30;;;;;;5030905;28;20033;-71
2022/06/25 11:58:28;;;;;;;2.15;1.05;;;25.30;94.70;;;;;;5027814;28;20029;-71
2022/06/25 12:00:56;;;;;;;2.30;1.08;;;25.20;94.40;;;;;;5030858;28;20025;-71
2022/06/25 12:03:26;;;;;;;2.70;1.33;;;25.40;94.40;;;;;;5030415;28;20079;-70
2022/06/25 12:05:53;;;;;;;1.83;1.23;;;25.40;94.20;;;;;;5024268;28;20024;-71
2022/06/25 12:08:20;;;;;;;2.53;1.23;;;25.40;93.70;;;;;;5029526;28;20106;-71
2022/06/25 12:10:47;;;;;;;2.80;1.42;;;26.10;94.10;;;;;;5030264;28;20382;-71
2022/06/25 12:13:17;;;;;;;3.85;1.10;;;26.80;94.20;;;;;;5029926;28;20025;-70
2022/06/25 12:15:42;;;;;;;3.08;1.52;;;25.30;93.70;;;;;;5029990;28;20029;-71
2022/06/25 12:18:08;;;;;;;1.52;0.95;;;25.60;93.20;;;;;;5029679;28;20391;-71
2022/06/25 12:20:34;;;;;;;1.27;0.88;;;25.60;93.10;;;;;;5030179;28;20053;-71
2022/06/25 12:23:02;;;;;;;3.40;1.15;;;26.00;93.00;;;;;;5030038;28;20034;-71
2022/06/25 12:25:31;;;;;;;2.80;1.23;;;25.90;92.80;;;;;;5030209;28;20022;-71
2022/06/25 12:27:57;;;;;;;4.68;1.55;;;25.90;92.90;;;;;;5017021;28;20022;-71
2022/06/25 12:30:28;;;;;;;3.85;1.10;;;25.70;92.80;;;;;;5008732;28;20075;-71
2022/06/25 12:32:57;;;;;;;3.50;1.83;;;25.50;93.20;;;;;;5018893;28;20429;-71
2022/06/25 12:35:25;;;;;;;3.40;1.02;;;25.40;92.80;;;;;;5029501;28;20060;-71
2022/06/25 12:38:03;;;;;;;2.55;1.38;;;25.40;93.20;;;;;;5029735;28;20037;-71
2022/06/25 12:40:30;;;;;;;1.52;1.20;;;25.30;93.50;;;;;;5029911;28;20112;-71
2022/06/25 12:42:57;;;;;;;3.45;1.58;;;25.50;93.20;;;;;;5030330;28;20125;-71
2022/06/25 12:45:23;;;;;;;3.30;1.23;;;25.40;93.40;;;;;;5029191;28;20026;-71
2022/06/25 12:47:49;;;;;;;2.60;1.52;;;25.60;92.80;;;;;;5029905;28;20095;-71
2022/06/25 12:50:31;;;;;;;1.75;1.15;;;25.60;92.40;;;;;;5029757;28;20777;-71
2022/06/25 12:53:09;;;;;;;2.10;1.38;;;25.80;92.00;;;;;;5029925;28;20486;-71
2022/06/25 12:55:35;;;;;;;1.98;0.82;;;26.00;92.60;;;;;;5026944;28;20049;-70
2022/06/25 12:58:09;;;;;;;1.25;0.73;;;26.30;91.90;;;;;;5028385;28;20060;-71
2022/06/25 13:00:37;;;;;;;2.17;0.82;;;26.50;91.70;;;;;;5027890;28;20033;-71
2022/06/25 13:03:05;;;;;;;1.48;0.88;;;26.40;91.20;;;;;;5016032;28;20087;-71
2022/06/25 13:05:31;;;;;;;2.08;0.65;;;26.30;91.30;;;;;;5014599;28;20071;-71
2022/06/25 13:07:57;;;;;;;2.80;0.75;;;26.30;91.20;;;;;;5013014;28;20144;-70